createdAt,value
2019-01-31T00:00:42.096Z,19.17
2019-01-31T00:03:16.293Z,20.92
2019-01-31T00:06:02.974Z,22.70
2019-01-31T00:08:45.625Z,22.50
2019-01-31T00:11:16.244Z,23.55
2019-01-31T00:14:02.709Z,24.30
2019-01-31T00:16:55.568Z,22.10
2019-01-31T00:19:32.883Z,24.10
2019-01-31T00:22:27.054Z,26.65
2019-01-31T00:25:10.690Z,26.00
2019-01-31T00:27:42.209Z,23.70
2019-01-31T00:30:19.944Z,23.80
2019-01-31T00:32:54.686Z,23.53
2019-01-31T00:35:29.334Z,24.43
2019-01-31T00:38:19.116Z,24.52
2019-01-31T00:40:59.020Z,25.10
2019-01-31T00:43:42.921Z,25.00
2019-01-31T00:46:23.139Z,24.90
2019-01-31T00:49:28.229Z,24.03
2019-01-31T00:52:24.178Z,23.43
2019-01-31T00:55:01.508Z,24.20
2019-01-31T00:57:57.606Z,26.20
2019-01-31T01:00:45.645Z,23.30
2019-01-31T01:03:43.004Z,23.07
2019-01-31T01:06:26.374Z,22.83
2019-01-31T01:09:09.244Z,23.60
2019-01-31T01:11:59.035Z,25.07
2019-01-31T01:14:42.033Z,23.13
2019-01-31T01:17:13.835Z,23.20
2019-01-31T01:19:54.105Z,24.27
2019-01-31T01:22:40.385Z,24.87
2019-01-31T01:25:30.097Z,21.97
2019-01-31T01:28:16.892Z,24.03
2019-01-31T01:31:09.379Z,21.60
2019-01-31T01:34:07.933Z,21.80
2019-01-31T01:36:42.270Z,22.37
2019-01-31T01:39:19.258Z,24.43
2019-01-31T01:41:49.885Z,25.27
2019-01-31T01:44:30.675Z,24.67
2019-01-31T01:47:26.072Z,23.40
2019-01-31T01:50:00.416Z,24.07
2019-01-31T01:52:44.058Z,24.10
2019-01-31T01:55:27.541Z,23.47
2019-01-31T01:58:23.378Z,23.65
2019-01-31T02:01:11.231Z,24.13
2019-01-31T02:03:54.499Z,23.70
2019-01-31T02:06:41.221Z,25.17
2019-01-31T02:09:15.836Z,24.07
2019-01-31T02:11:55.969Z,26.00
2019-01-31T02:14:45.656Z,25.67
2019-01-31T02:17:26.173Z,25.07
2019-01-31T02:20:03.299Z,26.17
2019-01-31T02:22:40.590Z,23.87
2019-01-31T02:25:15.155Z,23.73
2019-01-31T02:27:49.271Z,24.93
2019-01-31T02:30:29.061Z,27.00
2019-01-31T02:33:21.736Z,22.60
2019-01-31T02:35:59.245Z,23.47
2019-01-31T02:38:50.261Z,24.40
2019-01-31T02:41:31.030Z,22.73
2019-01-31T02:44:14.220Z,24.10
2019-01-31T02:46:54.483Z,24.27
2019-01-31T02:49:42.807Z,24.20
2019-01-31T02:52:30.586Z,24.40
2019-01-31T02:55:04.936Z,23.07
2019-01-31T02:57:42.022Z,21.67
2019-01-31T03:00:42.165Z,21.67
2019-01-31T03:03:19.477Z,23.53
2019-01-31T03:06:19.679Z,23.00
2019-01-31T03:09:20.126Z,23.30
2019-01-31T03:12:09.561Z,21.97
2019-01-31T03:14:39.571Z,21.60
2019-01-31T03:17:27.997Z,24.60
2019-01-31T03:20:02.662Z,22.10
2019-01-31T03:22:50.895Z,21.83
2019-01-31T03:25:25.349Z,21.23
2019-01-31T03:28:03.066Z,22.50
2019-01-31T03:30:43.484Z,21.67
2019-01-31T03:33:29.998Z,21.07
2019-01-31T03:36:01.616Z,21.00
2019-01-31T03:38:35.869Z,22.17
2019-01-31T03:41:18.807Z,23.97
2019-01-31T03:43:55.919Z,21.30
2019-01-31T03:46:45.437Z,22.67
2019-01-31T03:49:33.560Z,22.73
2019-01-31T03:52:08.024Z,23.70
2019-01-31T03:54:42.236Z,25.37
2019-01-31T03:57:16.969Z,24.40
2019-01-31T03:59:47.317Z,20.80
2019-01-31T04:02:21.550Z,24.57
2019-01-31T04:04:55.677Z,21.77
2019-01-31T04:07:24.028Z,25.73
2019-01-31T04:09:52.362Z,24.27
2019-01-31T04:12:20.684Z,25.73
2019-01-31T04:14:49.142Z,23.70
2019-01-31T04:17:17.488Z,22.10
2019-01-31T04:19:45.850Z,21.47
2019-01-31T04:22:14.412Z,24.43
2019-01-31T04:24:42.772Z,21.67
2019-01-31T04:27:11.140Z,22.53
2019-01-31T04:29:39.558Z,24.50
2019-01-31T04:32:07.873Z,24.20
2019-01-31T04:34:36.206Z,24.57
2019-01-31T04:37:04.533Z,22.73
2019-01-31T04:39:32.870Z,23.30
2019-01-31T04:42:01.183Z,22.67
2019-01-31T04:44:29.527Z,24.00
2019-01-31T04:46:57.812Z,22.85
2019-01-31T04:49:26.128Z,21.27
2019-01-31T04:51:54.400Z,20.93
2019-01-31T04:54:22.805Z,20.77
2019-01-31T04:56:51.078Z,20.37
2019-01-31T04:59:19.339Z,20.67
2019-01-31T05:01:47.782Z,20.23
2019-01-31T05:04:16.120Z,22.33
2019-01-31T05:06:44.494Z,21.60
2019-01-31T05:09:13.535Z,20.30
2019-01-31T05:11:41.852Z,22.15
2019-01-31T05:14:10.218Z,22.60
2019-01-31T05:16:38.557Z,21.37
2019-01-31T05:19:06.822Z,22.33
2019-01-31T05:21:35.115Z,22.60
2019-01-31T05:24:03.460Z,20.87
2019-01-31T05:26:31.768Z,20.90
2019-01-31T05:29:00.055Z,21.23
2019-01-31T05:31:28.473Z,21.37
2019-01-31T05:33:56.737Z,22.30
2019-01-31T05:36:25.028Z,19.40
2019-01-31T05:38:53.340Z,20.77
2019-01-31T05:41:21.673Z,21.93
2019-01-31T05:43:50.059Z,23.93
2019-01-31T05:46:18.490Z,21.10
2019-01-31T05:48:46.854Z,21.83
2019-01-31T05:51:15.165Z,21.70
2019-01-31T05:53:43.536Z,22.87
2019-01-31T05:56:11.840Z,22.90
2019-01-31T05:58:40.202Z,21.60
2019-01-31T06:01:08.689Z,19.17
2019-01-31T06:03:36.966Z,20.67
2019-01-31T06:06:05.268Z,22.90
2019-01-31T06:08:33.584Z,22.10
2019-01-31T06:11:07.467Z,20.50
2019-01-31T06:13:31.924Z,21.13
2019-01-31T06:16:00.225Z,20.13
2019-01-31T06:18:28.584Z,20.00
2019-01-31T06:20:56.934Z,20.83
2019-01-31T06:23:25.186Z,19.33
2019-01-31T06:25:53.478Z,18.87
2019-01-31T06:28:21.817Z,18.77
2019-01-31T06:30:50.260Z,18.20
2019-01-31T06:33:18.520Z,17.13
2019-01-31T06:35:46.824Z,16.77
2019-01-31T06:38:15.159Z,15.60
2019-01-31T06:40:44.031Z,15.87
2019-01-31T06:43:12.309Z,17.40
2019-01-31T06:45:40.617Z,16.73
2019-01-31T06:48:08.903Z,16.80
2019-01-31T06:50:37.173Z,16.30
2019-01-31T06:53:05.473Z,16.53
2019-01-31T06:55:33.760Z,18.10
2019-01-31T06:58:02.091Z,17.23
2019-01-31T07:00:30.388Z,16.37
2019-01-31T07:02:58.741Z,16.90
2019-01-31T07:05:27.072Z,17.13
2019-01-31T07:07:55.363Z,17.70
2019-01-31T07:10:25.568Z,16.70
2019-01-31T07:12:54.038Z,17.10
2019-01-31T07:15:22.304Z,17.33
2019-01-31T07:17:50.589Z,17.50
2019-01-31T07:20:18.960Z,16.73
2019-01-31T07:22:47.321Z,17.03
2019-01-31T07:25:23.860Z,15.20
2019-01-31T07:27:52.199Z,16.43
2019-01-31T07:30:21.988Z,16.73
2019-01-31T07:32:50.322Z,17.70
2019-01-31T07:35:18.641Z,17.47
2019-01-31T07:37:47.012Z,16.97
2019-01-31T07:40:17.988Z,16.60
2019-01-31T07:42:46.335Z,18.67
2019-01-31T07:45:20.417Z,18.70
2019-01-31T07:47:48.800Z,18.27
2019-01-31T07:50:19.601Z,17.40
2019-01-31T07:52:48.041Z,17.70
2019-01-31T07:55:16.409Z,17.77
2019-01-31T07:57:45.166Z,17.20
2019-01-31T08:00:24.897Z,17.30
2019-01-31T08:02:53.297Z,16.43
2019-01-31T08:05:25.358Z,17.40
2019-01-31T08:07:56.118Z,16.17
2019-01-31T08:10:33.531Z,16.70
2019-01-31T08:13:01.880Z,16.70
2019-01-31T08:15:30.278Z,17.23
2019-01-31T08:17:58.582Z,16.10
2019-01-31T08:20:26.868Z,16.27
2019-01-31T08:23:00.090Z,17.50
2019-01-31T08:25:26.973Z,16.50
2019-01-31T08:27:56.213Z,15.30
2019-01-31T08:30:26.949Z,15.00
2019-01-31T08:32:55.919Z,15.90
2019-01-31T08:35:24.201Z,16.93
2019-01-31T08:37:52.604Z,15.50
2019-01-31T08:40:20.949Z,15.13
2019-01-31T08:42:50.139Z,15.20
2019-01-31T08:45:18.537Z,14.80
2019-01-31T08:47:46.800Z,14.93
2019-01-31T08:50:20.837Z,18.27
2019-01-31T08:52:49.132Z,16.40
2019-01-31T08:55:17.424Z,20.27
2019-01-31T08:57:47.623Z,19.00
2019-01-31T09:00:22.398Z,19.30
2019-01-31T09:02:50.796Z,20.03
2019-01-31T09:05:19.084Z,18.07
2019-01-31T09:07:47.572Z,18.90
2019-01-31T09:10:18.682Z,20.50
2019-01-31T09:12:47.026Z,20.80
2019-01-31T09:15:18.327Z,21.87
2019-01-31T09:17:47.390Z,22.20
2019-01-31T09:20:21.642Z,21.07
2019-01-31T09:23:11.356Z,21.87
2019-01-31T09:25:57.770Z,21.93
2019-01-31T09:28:46.039Z,22.17
2019-01-31T09:31:37.151Z,22.40
2019-01-31T09:34:14.532Z,25.47
2019-01-31T09:36:48.511Z,26.10
2019-01-31T09:39:35.085Z,21.53
2019-01-31T09:42:12.650Z,22.10
2019-01-31T09:44:50.052Z,26.20
2019-01-31T09:47:36.312Z,24.73
2019-01-31T09:50:14.057Z,24.87
2019-01-31T09:52:54.568Z,26.07
2019-01-31T09:55:47.247Z,21.90
2019-01-31T09:58:28.306Z,22.40
2019-01-31T10:01:24.428Z,23.00
2019-01-31T10:04:01.780Z,25.20
2019-01-31T10:06:38.927Z,23.83
2019-01-31T10:09:28.453Z,24.20
2019-01-31T10:12:15.079Z,23.60
2019-01-31T10:14:49.459Z,22.70
2019-01-31T10:17:54.233Z,23.77
2019-01-31T10:20:31.857Z,24.50
2019-01-31T10:23:18.497Z,23.07
2019-01-31T10:26:01.769Z,22.20
2019-01-31T10:28:35.804Z,22.70
2019-01-31T10:31:10.347Z,23.00
2019-01-31T10:33:47.465Z,24.30
2019-01-31T10:36:26.394Z,23.07
2019-01-31T10:39:07.154Z,22.67
2019-01-31T10:41:50.829Z,25.55
2019-01-31T10:44:37.508Z,22.57
2019-01-31T10:47:24.403Z,23.60
2019-01-31T10:50:18.006Z,22.10
2019-01-31T10:52:55.558Z,22.87
2019-01-31T10:55:51.194Z,24.57
2019-01-31T10:58:37.984Z,22.87
2019-01-31T11:01:26.311Z,22.50
2019-01-31T11:04:29.993Z,20.50
2019-01-31T11:07:01.613Z,20.67
2019-01-31T11:09:45.490Z,22.30
2019-01-31T11:12:38.217Z,19.52
2019-01-31T11:15:21.629Z,22.30
2019-01-31T11:17:56.198Z,19.30
2019-01-31T11:20:44.060Z,25.00
2019-01-31T11:23:18.385Z,32.73
2019-01-31T11:25:52.969Z,48.97
2019-01-31T11:28:45.888Z,28.00
2019-01-31T11:31:17.440Z,21.07
2019-01-31T11:33:49.001Z,34.30
2019-01-31T11:36:26.565Z,22.48
2019-01-31T11:39:08.769Z,26.63
2019-01-31T11:41:55.324Z,29.47
2019-01-31T11:44:54.279Z,22.82
2019-01-31T11:47:37.960Z,21.17
2019-01-31T11:50:21.417Z,21.65
2019-01-31T11:53:05.128Z,21.70
2019-01-31T11:55:39.648Z,22.37
2019-01-31T11:58:29.389Z,22.60
2019-01-31T12:00:57.656Z,24.20
2019-01-31T12:03:26.148Z,22.60
2019-01-31T12:05:54.604Z,23.10
2019-01-31T12:08:22.908Z,23.87
2019-01-31T12:10:51.367Z,24.03
2019-01-31T12:13:23.520Z,24.07
2019-01-31T12:15:49.714Z,24.90
2019-01-31T12:18:18.133Z,23.37
2019-01-31T12:20:46.587Z,24.03
2019-01-31T12:23:14.950Z,27.27
2019-01-31T12:25:44.883Z,21.33
2019-01-31T12:28:16.640Z,24.50
2019-01-31T12:30:45.091Z,23.50
2019-01-31T12:33:13.542Z,24.03
2019-01-31T12:35:41.846Z,22.70
2019-01-31T12:38:10.439Z,22.83
2019-01-31T12:40:38.825Z,24.07
2019-01-31T12:43:07.165Z,24.40
2019-01-31T12:45:36.564Z,24.93
2019-01-31T12:48:07.228Z,25.47
2019-01-31T12:50:35.263Z,26.70
2019-01-31T12:53:03.763Z,23.03
2019-01-31T12:55:32.105Z,27.23
2019-01-31T12:58:00.509Z,25.40
2019-01-31T13:00:28.849Z,22.87
2019-01-31T13:02:57.275Z,22.70
2019-01-31T13:05:25.617Z,26.80
2019-01-31T13:07:53.972Z,25.63
2019-01-31T13:10:22.402Z,25.63
2019-01-31T13:12:50.854Z,20.77
2019-01-31T13:15:19.292Z,26.67
2019-01-31T13:17:47.685Z,26.93
2019-01-31T13:20:21.055Z,24.33
2019-01-31T13:22:51.553Z,23.53
2019-01-31T13:25:19.925Z,23.60
2019-01-31T13:27:48.341Z,23.03
2019-01-31T13:30:18.978Z,23.30
2019-01-31T13:32:47.319Z,23.50
2019-01-31T13:35:16.533Z,22.90
2019-01-31T13:37:44.870Z,26.70
2019-01-31T13:40:18.072Z,22.57
2019-01-31T13:42:46.723Z,22.90
2019-01-31T13:45:17.892Z,23.03
2019-01-31T13:47:46.313Z,22.53
2019-01-31T13:50:16.537Z,24.83
2019-01-31T13:52:44.878Z,30.13
2019-01-31T13:55:18.804Z,35.27
2019-01-31T13:57:48.068Z,35.30
2019-01-31T14:00:25.181Z,33.27
2019-01-31T14:02:56.853Z,25.10
2019-01-31T14:05:25.637Z,24.73
2019-01-31T14:07:54.076Z,23.67
2019-01-31T14:10:24.515Z,21.80
2019-01-31T14:12:54.496Z,21.90
2019-01-31T14:15:33.114Z,21.10
2019-01-31T14:17:55.507Z,22.70
2019-01-31T14:20:25.801Z,22.20
2019-01-31T14:22:58.829Z,23.53
2019-01-31T14:25:27.229Z,23.63
2019-01-31T14:27:55.628Z,28.97
2019-01-31T14:30:29.855Z,23.07
2019-01-31T14:32:58.771Z,22.90
2019-01-31T14:35:29.875Z,18.53
2019-01-31T14:37:57.815Z,19.30
2019-01-31T14:40:28.908Z,18.33
2019-01-31T14:42:57.374Z,17.70
2019-01-31T14:45:25.991Z,23.33
2019-01-31T14:47:55.848Z,40.53
2019-01-31T14:50:36.741Z,22.10
2019-01-31T14:53:05.949Z,20.77
2019-01-31T14:55:36.040Z,21.13
2019-01-31T14:58:06.137Z,18.30
2019-01-31T15:00:36.288Z,18.40
2019-01-31T15:03:05.113Z,15.10
2019-01-31T15:05:37.139Z,13.90
2019-01-31T15:08:05.190Z,17.50
2019-01-31T15:10:33.611Z,14.33
2019-01-31T15:13:01.886Z,14.43
2019-01-31T15:15:30.153Z,15.37
2019-01-31T15:17:58.556Z,14.77
2019-01-31T15:20:38.094Z,14.87
2019-01-31T15:23:04.982Z,14.67
2019-01-31T15:25:33.286Z,13.40
2019-01-31T15:28:08.856Z,12.23
2019-01-31T15:30:37.747Z,10.93
2019-01-31T15:33:08.362Z,9.30
2019-01-31T15:35:36.708Z,10.73
2019-01-31T15:38:05.037Z,8.97
2019-01-31T15:40:36.655Z,10.17
2019-01-31T15:43:05.235Z,9.20
2019-01-31T15:45:33.603Z,8.50
2019-01-31T15:48:01.956Z,9.43
2019-01-31T15:50:30.382Z,9.73
2019-01-31T15:52:58.812Z,8.40
2019-01-31T15:55:27.864Z,8.63
2019-01-31T15:57:58.368Z,9.90
2019-01-31T16:00:30.643Z,8.10
2019-01-31T16:02:59.077Z,8.03
2019-01-31T16:05:27.600Z,8.30
2019-01-31T16:07:57.192Z,8.90
2019-01-31T16:10:27.113Z,9.30
2019-01-31T16:12:55.535Z,8.60
2019-01-31T16:15:23.975Z,10.73
2019-01-31T16:17:52.708Z,9.57
2019-01-31T16:20:21.280Z,9.13
2019-01-31T16:22:49.536Z,9.90
2019-01-31T16:25:17.943Z,10.80
2019-01-31T16:27:46.326Z,10.93
2019-01-31T16:30:19.117Z,11.97
2019-01-31T16:32:47.549Z,12.97
2019-01-31T16:35:18.288Z,11.50
2019-01-31T16:37:47.184Z,10.13
2019-01-31T16:40:18.743Z,9.53
2019-01-31T16:42:47.036Z,10.50
2019-01-31T16:45:16.387Z,11.10
2019-01-31T16:47:45.030Z,10.53
2019-01-31T16:50:21.305Z,11.33
2019-01-31T16:52:49.789Z,9.67
2019-01-31T16:55:20.801Z,10.00
2019-01-31T16:57:49.413Z,10.07
2019-01-31T17:00:22.003Z,9.80
2019-01-31T17:02:50.309Z,11.23
2019-01-31T17:05:20.698Z,11.40
2019-01-31T17:07:50.882Z,12.07
2019-01-31T17:10:19.478Z,10.97
2019-01-31T17:12:47.758Z,10.50
2019-01-31T17:15:18.475Z,8.43
2019-01-31T17:17:46.940Z,9.00
2019-01-31T17:20:23.953Z,9.97
2019-01-31T17:22:52.245Z,8.20
2019-01-31T17:25:20.517Z,7.90
2019-01-31T17:27:48.878Z,8.47
2019-01-31T17:30:19.474Z,9.03
2019-01-31T17:32:47.729Z,8.60
2019-01-31T17:35:16.046Z,7.60
2019-01-31T17:37:44.330Z,9.53
2019-01-31T17:40:18.587Z,8.60
2019-01-31T17:42:46.893Z,9.07
2019-01-31T17:45:17.290Z,7.87
2019-01-31T17:47:45.563Z,8.90
2019-01-31T17:50:14.998Z,8.30
2019-01-31T17:52:43.450Z,9.80
2019-01-31T17:55:14.893Z,8.10
2019-01-31T17:57:43.139Z,9.10
2019-01-31T18:00:25.369Z,9.93
2019-01-31T18:02:53.623Z,9.50
2019-01-31T18:05:21.879Z,10.10
2019-01-31T18:07:50.159Z,9.60
2019-01-31T18:10:22.705Z,9.83
2019-01-31T18:12:51.081Z,9.03
2019-01-31T18:15:19.384Z,9.00
2019-01-31T18:17:47.687Z,8.90
2019-01-31T18:20:23.234Z,9.60
2019-01-31T18:22:51.504Z,8.43
2019-01-31T18:25:19.814Z,10.37
2019-01-31T18:27:48.108Z,10.30
2019-01-31T18:30:19.521Z,10.90
2019-01-31T18:32:47.791Z,10.33
2019-01-31T18:35:16.049Z,11.63
2019-01-31T18:37:44.359Z,9.67
2019-01-31T18:40:15.648Z,8.93
2019-01-31T18:42:43.952Z,9.93
2019-01-31T18:45:18.297Z,8.07
2019-01-31T18:47:46.577Z,8.63
2019-01-31T18:50:17.967Z,10.03
2019-01-31T18:52:46.256Z,9.37
2019-01-31T18:55:14.507Z,8.67
2019-01-31T18:57:42.833Z,8.40
2019-01-31T19:00:25.552Z,9.27
2019-01-31T19:02:53.807Z,10.67
2019-01-31T19:05:22.184Z,10.00
2019-01-31T19:07:50.569Z,10.40
2019-01-31T19:10:18.948Z,11.53
2019-01-31T19:12:47.202Z,10.77
2019-01-31T19:15:18.787Z,10.10
2019-01-31T19:17:47.126Z,13.50
2019-01-31T19:20:23.041Z,11.40
2019-01-31T19:22:52.643Z,13.77
2019-01-31T19:25:20.902Z,11.00
2019-01-31T19:27:49.191Z,11.03
2019-01-31T19:30:20.515Z,9.83
2019-01-31T19:32:48.895Z,10.97
2019-01-31T19:35:17.177Z,13.47
2019-01-31T19:37:45.435Z,14.23
2019-01-31T19:40:19.198Z,13.83
2019-01-31T19:42:47.730Z,9.77
2019-01-31T19:45:21.916Z,10.70
2019-01-31T19:47:50.501Z,12.27
2019-01-31T19:50:18.980Z,16.10
2019-01-31T19:52:47.333Z,15.00
2019-01-31T19:55:15.582Z,11.97
2019-01-31T19:57:43.983Z,16.67
2019-01-31T20:00:18.977Z,14.80
2019-01-31T20:02:47.331Z,12.63
2019-01-31T20:05:15.970Z,10.60
2019-01-31T20:07:44.666Z,10.30
2019-01-31T20:10:19.376Z,10.70
2019-01-31T20:12:47.838Z,11.40
2019-01-31T20:15:16.701Z,9.30
2019-01-31T20:17:47.659Z,9.57
2019-01-31T20:20:20.985Z,11.57
2019-01-31T20:22:50.681Z,9.67
2019-01-31T20:25:19.173Z,10.80
2019-01-31T20:27:47.538Z,9.83
2019-01-31T20:30:18.793Z,10.63
2019-01-31T20:32:47.177Z,9.67
2019-01-31T20:35:17.369Z,9.70
2019-01-31T20:37:45.668Z,9.83
2019-01-31T20:40:20.159Z,10.40
2019-01-31T20:42:48.538Z,9.67
2019-01-31T20:45:16.885Z,9.47
2019-01-31T20:47:45.161Z,10.17
2019-01-31T20:50:22.144Z,11.07
2019-01-31T20:52:50.451Z,9.80
2019-01-31T20:55:18.854Z,9.07
2019-01-31T20:57:47.116Z,10.13
2019-01-31T21:00:28.322Z,10.40
2019-01-31T21:02:56.648Z,9.27
2019-01-31T21:05:26.161Z,9.00
2019-01-31T21:07:54.667Z,7.93
2019-01-31T21:10:22.926Z,8.23
2019-01-31T21:12:51.819Z,9.00
2019-01-31T21:15:23.362Z,8.17
2019-01-31T21:17:51.637Z,8.03
2019-01-31T21:20:26.362Z,7.80
2019-01-31T21:22:55.074Z,8.43
2019-01-31T21:25:23.387Z,7.77
2019-01-31T21:27:51.703Z,7.30
2019-01-31T21:30:23.023Z,7.83
2019-01-31T21:32:51.401Z,7.20
2019-01-31T21:35:20.006Z,6.80
2019-01-31T21:37:48.378Z,7.33
2019-01-31T21:40:18.824Z,7.27
2019-01-31T21:42:47.071Z,7.20
2019-01-31T21:45:17.559Z,6.00
2019-01-31T21:47:45.918Z,6.67
2019-01-31T21:50:16.750Z,5.10
2019-01-31T21:52:45.151Z,5.87
2019-01-31T21:55:14.584Z,5.70
2019-01-31T21:57:42.859Z,5.47
2019-01-31T22:00:17.661Z,6.00
2019-01-31T22:02:45.893Z,4.97
2019-01-31T22:05:15.894Z,5.20
2019-01-31T22:07:44.224Z,5.40
2019-01-31T22:10:14.687Z,5.33
2019-01-31T22:12:43.031Z,5.33
2019-01-31T22:15:14.504Z,4.70
2019-01-31T22:17:42.761Z,3.97
2019-01-31T22:20:11.995Z,5.33
2019-01-31T22:22:40.272Z,4.23
2019-01-31T22:25:11.332Z,4.60
2019-01-31T22:27:39.587Z,4.47
2019-01-31T22:30:11.155Z,4.20
2019-01-31T22:32:39.436Z,3.70
2019-01-31T22:35:08.821Z,4.87
2019-01-31T22:37:37.141Z,3.80
2019-01-31T22:40:09.010Z,3.27
2019-01-31T22:42:37.255Z,4.17
2019-01-31T22:45:08.819Z,2.83
2019-01-31T22:47:37.123Z,4.10
2019-01-31T22:50:08.489Z,3.23
2019-01-31T22:52:36.738Z,3.60
2019-01-31T22:55:07.598Z,3.57
2019-01-31T22:57:35.890Z,4.80
2019-01-31T23:00:11.945Z,4.07
2019-01-31T23:02:40.239Z,3.57
2019-01-31T23:05:08.472Z,3.50
2019-01-31T23:07:36.750Z,3.67
2019-01-31T23:10:08.616Z,4.20
2019-01-31T23:12:36.905Z,4.07
2019-01-31T23:15:10.516Z,3.77
2019-01-31T23:17:38.752Z,4.53
2019-01-31T23:20:14.769Z,3.30
2019-01-31T23:22:43.061Z,3.70
2019-01-31T23:25:11.346Z,4.13
2019-01-31T23:27:39.632Z,4.10
2019-01-31T23:30:13.869Z,3.83
2019-01-31T23:32:42.118Z,3.70
2019-01-31T23:35:10.410Z,3.93
2019-01-31T23:37:38.701Z,3.87
2019-01-31T23:40:10.075Z,5.03
2019-01-31T23:42:38.349Z,3.90
2019-01-31T23:45:15.205Z,3.97
2019-01-31T23:47:48.913Z,4.27
2019-01-31T23:50:13.519Z,4.20
2019-01-31T23:52:42.135Z,4.50
2019-01-31T23:55:12.895Z,5.27
2019-01-31T23:57:41.212Z,3.57
